createdAt,value
2022-10-17T00:01:07.472Z,99955.80
2022-10-17T00:03:37.301Z,99947.40
2022-10-17T00:06:15.639Z,99944.20
2022-10-17T00:08:45.185Z,99947.00
2022-10-17T00:11:23.927Z,99945.80
2022-10-17T00:13:55.749Z,99949.20
2022-10-17T00:16:30.980Z,99951.40
2022-10-17T00:18:58.574Z,99956.60
2022-10-17T00:21:27.170Z,99956.20
2022-10-17T00:23:55.679Z,99952.40
2022-10-17T00:26:23.462Z,99946.20
2022-10-17T00:28:52.889Z,99940.40
2022-10-17T00:31:23.147Z,99940.60
2022-10-17T00:33:52.258Z,99940.80
2022-10-17T00:36:25.979Z,99936.60
2022-10-17T00:38:58.054Z,99936.20
2022-10-17T00:41:33.402Z,99933.60
2022-10-17T00:44:31.888Z,99934.80
2022-10-17T00:47:05.263Z,99941.80
2022-10-17T00:49:36.581Z,99950.00
2022-10-17T00:52:18.341Z,99946.40
2022-10-17T00:54:56.071Z,99951.40
2022-10-17T00:57:27.170Z,99950.00
2022-10-17T00:59:59.392Z,99953.80
2022-10-17T01:02:27.349Z,99961.00
2022-10-17T01:04:59.430Z,99961.00
2022-10-17T01:07:33.169Z,99963.40
2022-10-17T01:10:06.197Z,99967.60
2022-10-17T01:12:52.156Z,99974.00
2022-10-17T01:15:55.424Z,99974.00
2022-10-17T01:18:45.203Z,99980.20
2022-10-17T01:21:51.750Z,99977.80
2022-10-17T01:24:39.557Z,99969.40
2022-10-17T01:27:42.285Z,99966.80
2022-10-17T01:30:29.289Z,99962.60
2022-10-17T01:33:02.894Z,99958.80
2022-10-17T01:35:44.518Z,99955.20
2022-10-17T01:38:23.821Z,99952.40
2022-10-17T01:41:10.858Z,99961.40
2022-10-17T01:43:47.135Z,99957.00
2022-10-17T01:46:37.157Z,99951.20
2022-10-17T01:49:09.765Z,99947.20
2022-10-17T01:51:47.858Z,99946.40
2022-10-17T01:54:39.344Z,99941.80
2022-10-17T01:57:22.017Z,99941.80
2022-10-17T01:59:52.756Z,99945.40
2022-10-17T02:02:21.652Z,99952.00
2022-10-17T02:04:52.135Z,99951.00
2022-10-17T02:07:19.834Z,99948.80
2022-10-17T02:09:47.449Z,99948.40
2022-10-17T02:12:47.209Z,99943.80
2022-10-17T02:15:55.153Z,99945.60
2022-10-17T02:18:48.208Z,99943.20
2022-10-17T02:21:46.323Z,99942.40
2022-10-17T02:24:33.213Z,99949.60
2022-10-17T02:27:20.373Z,99951.00
2022-10-17T02:30:03.472Z,99947.60
2022-10-17T02:33:01.020Z,99961.40
2022-10-17T02:35:35.374Z,99956.60
2022-10-17T02:38:07.858Z,99950.80
2022-10-17T02:40:38.278Z,99952.20
2022-10-17T02:43:06.083Z,99959.40
2022-10-17T02:45:37.669Z,99965.40
2022-10-17T02:48:14.689Z,99969.20
2022-10-17T02:50:45.253Z,99965.60
2022-10-17T02:53:24.962Z,99969.00
2022-10-17T02:56:02.659Z,99970.80
2022-10-17T02:58:36.305Z,99972.20
2022-10-17T03:01:05.914Z,99969.00
2022-10-17T03:03:33.734Z,99974.20
2022-10-17T03:06:01.431Z,99976.40
2022-10-17T03:08:29.100Z,99975.80
2022-10-17T03:10:56.816Z,99976.20
2022-10-17T03:13:24.491Z,99977.20
2022-10-17T03:15:52.090Z,99980.80
2022-10-17T03:18:19.705Z,99980.80
2022-10-17T03:20:47.260Z,99974.80
2022-10-17T03:23:15.084Z,99978.20
2022-10-17T03:25:42.754Z,99989.60
2022-10-17T03:28:12.243Z,99992.80
2022-10-17T03:30:39.796Z,99993.40
2022-10-17T03:33:07.491Z,99992.80
2022-10-17T03:35:40.329Z,99995.80
2022-10-17T03:38:07.981Z,99985.60
2022-10-17T03:40:35.577Z,99989.60
2022-10-17T03:43:03.984Z,99993.40
2022-10-17T03:45:31.602Z,99992.00
2022-10-17T03:48:00.233Z,99992.40
2022-10-17T03:50:27.882Z,99988.80
2022-10-17T03:52:55.549Z,99996.40
2022-10-17T03:55:24.458Z,99995.40
2022-10-17T03:57:52.032Z,99991.80
2022-10-17T04:00:19.761Z,99992.20
2022-10-17T04:02:47.298Z,99994.60
2022-10-17T04:05:15.014Z,100002.40
2022-10-17T04:07:42.594Z,100006.00
2022-10-17T04:10:11.002Z,100010.00
2022-10-17T04:12:38.944Z,100009.00
2022-10-17T04:15:07.659Z,100010.00
2022-10-17T04:17:37.997Z,100009.40
2022-10-17T04:20:06.925Z,100007.60
2022-10-17T04:22:34.626Z,99997.80
2022-10-17T04:25:02.441Z,99995.80
2022-10-17T04:27:30.195Z,99999.20
2022-10-17T04:29:57.816Z,100007.20
2022-10-17T04:32:26.055Z,100009.60
2022-10-17T04:34:53.815Z,100008.00
2022-10-17T04:37:21.425Z,100010.20
2022-10-17T04:39:48.990Z,100012.60
2022-10-17T04:42:16.985Z,100012.40
2022-10-17T04:44:44.645Z,100015.00
2022-10-17T04:47:12.285Z,100022.00
2022-10-17T04:52:12.360Z,100025.80
2022-10-17T04:54:39.943Z,100024.20
2022-10-17T04:57:07.605Z,100027.60
2022-10-17T04:59:35.212Z,100030.40
2022-10-17T05:02:02.733Z,100027.80
2022-10-17T05:04:30.310Z,100031.40
2022-10-17T05:06:57.857Z,100030.40
2022-10-17T05:09:25.590Z,100030.60
2022-10-17T05:11:53.293Z,100028.00
2022-10-17T05:14:21.322Z,100029.60
2022-10-17T05:16:48.940Z,100025.00
2022-10-17T05:19:18.428Z,100024.20
2022-10-17T05:21:45.992Z,100023.60
2022-10-17T05:24:15.306Z,100023.00
2022-10-17T05:26:43.175Z,100024.00
2022-10-17T05:29:11.120Z,100029.40
2022-10-17T05:31:38.792Z,100034.80
2022-10-17T05:34:09.020Z,100038.40
2022-10-17T05:36:39.273Z,100043.40
2022-10-17T05:39:06.893Z,100045.20
2022-10-17T05:41:34.924Z,100054.40
2022-10-17T05:44:05.366Z,100056.80
2022-10-17T05:46:33.432Z,100059.40
2022-10-17T05:49:01.022Z,100063.80
2022-10-17T05:51:28.792Z,100063.60
2022-10-17T05:53:56.432Z,100069.80
2022-10-17T05:56:24.101Z,100071.00
2022-10-17T05:58:55.048Z,100073.00
2022-10-17T06:01:24.547Z,100075.00
2022-10-17T06:03:52.381Z,100073.00
2022-10-17T06:06:20.382Z,100079.60
2022-10-17T06:08:47.974Z,100079.00
2022-10-17T06:11:15.654Z,100070.60
2022-10-17T06:13:43.453Z,100068.20
2022-10-17T06:16:11.058Z,100073.00
2022-10-17T06:18:39.159Z,100073.20
2022-10-17T06:21:11.444Z,100077.60
2022-10-17T06:23:39.063Z,100077.80
2022-10-17T06:26:07.714Z,100081.20
2022-10-17T06:28:36.716Z,100081.00
2022-10-17T06:31:10.696Z,100082.40
2022-10-17T06:33:39.229Z,100082.40
2022-10-17T06:36:11.600Z,100091.00
2022-10-17T06:38:39.458Z,100088.40
2022-10-17T06:41:18.922Z,100089.60
2022-10-17T06:43:47.690Z,100091.00
2022-10-17T06:46:18.407Z,100096.00
2022-10-17T06:48:46.219Z,100103.80
2022-10-17T06:51:13.966Z,100109.00
2022-10-17T06:53:41.517Z,100110.80
2022-10-17T06:56:10.879Z,100112.80
2022-10-17T06:58:40.457Z,100113.00
2022-10-17T07:01:12.042Z,100121.00
2022-10-17T07:03:41.233Z,100117.40
2022-10-17T07:06:11.404Z,100124.00
2022-10-17T07:08:44.307Z,100120.20
2022-10-17T07:11:19.508Z,100121.80
2022-10-17T07:13:48.526Z,100116.80
2022-10-17T07:16:17.231Z,100116.60
2022-10-17T07:18:50.630Z,100122.40
2022-10-17T07:21:18.573Z,100126.40
2022-10-17T07:23:46.608Z,100126.20
2022-10-17T07:26:17.379Z,100131.20
2022-10-17T07:28:51.002Z,100133.40
2022-10-17T07:31:20.550Z,100136.00
2022-10-17T07:33:49.121Z,100131.40
2022-10-17T07:36:17.891Z,100134.60
2022-10-17T07:38:45.593Z,100138.60
2022-10-17T07:41:17.780Z,100140.00
2022-10-17T07:43:48.721Z,100137.80
2022-10-17T07:46:16.288Z,100145.60
2022-10-17T07:48:43.857Z,100134.80
2022-10-17T07:51:11.475Z,100130.80
2022-10-17T07:53:41.758Z,100131.80
2022-10-17T07:56:12.480Z,100133.40
2022-10-17T07:58:40.483Z,100140.80
2022-10-17T08:01:15.420Z,100140.00
2022-10-17T08:03:45.821Z,100142.40
2022-10-17T08:06:13.564Z,100136.60
2022-10-17T08:08:42.253Z,100138.80
2022-10-17T08:11:14.352Z,100143.40
2022-10-17T08:13:42.180Z,100138.20
2022-10-17T08:16:13.272Z,100140.60
2022-10-17T08:18:43.308Z,100134.00
2022-10-17T08:21:13.252Z,100138.80
2022-10-17T08:23:41.770Z,100139.60
2022-10-17T08:26:13.326Z,100144.20
2022-10-17T08:28:41.055Z,100140.20
2022-10-17T08:31:14.653Z,100147.60
2022-10-17T08:33:42.395Z,100142.00
2022-10-17T08:36:13.642Z,100145.40
2022-10-17T08:38:43.691Z,100146.40
2022-10-17T08:41:42.758Z,100143.00
2022-10-17T08:44:25.800Z,100139.60
2022-10-17T08:46:59.073Z,100144.60
2022-10-17T08:49:57.593Z,100140.60
2022-10-17T08:53:02.928Z,100146.60
2022-10-17T08:55:45.314Z,100145.40
2022-10-17T08:58:32.577Z,100141.00
2022-10-17T09:01:44.469Z,100142.00
2022-10-17T09:04:42.182Z,100141.20
2022-10-17T09:07:18.999Z,100150.60
2022-10-17T09:10:15.551Z,100149.80
2022-10-17T09:13:06.925Z,100150.80
2022-10-17T09:15:55.212Z,100149.40
2022-10-17T09:18:32.921Z,100151.60
2022-10-17T09:21:42.835Z,100155.60
2022-10-17T09:24:37.576Z,100151.00
2022-10-17T09:27:22.074Z,100149.40
2022-10-17T09:30:40.012Z,100154.00
2022-10-17T09:33:53.848Z,100153.40
2022-10-17T09:36:35.756Z,100154.40
2022-10-17T09:39:22.324Z,100148.00
2022-10-17T09:41:55.478Z,100147.40
2022-10-17T09:44:34.000Z,100147.40
2022-10-17T09:47:10.655Z,100151.20
2022-10-17T09:49:42.373Z,100152.60
2022-10-17T09:52:20.980Z,100155.20
2022-10-17T09:54:57.396Z,100158.20
2022-10-17T09:57:26.333Z,100156.20
2022-10-17T10:00:05.015Z,100154.00
2022-10-17T10:02:36.382Z,100152.40
2022-10-17T10:05:16.573Z,100150.40
2022-10-17T10:08:03.352Z,100152.20
2022-10-17T10:10:32.343Z,100152.20
2022-10-17T10:13:15.680Z,100150.20
2022-10-17T10:15:49.507Z,100141.60
2022-10-17T10:18:26.189Z,100138.40
2022-10-17T10:21:06.773Z,100141.80
2022-10-17T10:23:40.078Z,100137.40
2022-10-17T10:26:25.877Z,100146.00
2022-10-17T10:29:30.773Z,100143.40
2022-10-17T10:32:11.986Z,100146.20
2022-10-17T10:34:53.372Z,100144.40
2022-10-17T10:37:38.950Z,100140.40
2022-10-17T10:40:19.867Z,100141.40
2022-10-17T10:42:52.753Z,100145.00
2022-10-17T10:48:37.004Z,100139.20
2022-10-17T10:51:10.025Z,100131.40
2022-10-17T10:53:58.741Z,100135.80
2022-10-17T10:57:07.316Z,100131.40
2022-10-17T11:00:04.729Z,100130.20
2022-10-17T11:03:01.821Z,100126.40
2022-10-17T11:05:46.215Z,100121.80
2022-10-17T11:08:51.040Z,100125.60
2022-10-17T11:11:49.086Z,100121.00
2022-10-17T11:14:30.407Z,100120.80
2022-10-17T11:17:28.846Z,100121.80
2022-10-17T11:20:09.718Z,100123.60
2022-10-17T11:22:44.486Z,100122.40
2022-10-17T11:25:12.001Z,100123.80
2022-10-17T11:27:39.554Z,100114.40
2022-10-17T11:30:13.873Z,100122.20
2022-10-17T11:32:58.100Z,100123.40
2022-10-17T11:35:42.107Z,100120.20
2022-10-17T11:38:42.006Z,100113.20
2022-10-17T11:41:22.116Z,100113.40
2022-10-17T11:44:19.516Z,100107.00
2022-10-17T11:46:56.379Z,100115.80
2022-10-17T11:49:46.093Z,100109.20
2022-10-17T11:52:44.412Z,100109.60
2022-10-17T11:55:26.495Z,100107.40
2022-10-17T11:58:38.481Z,100109.60
2022-10-17T12:01:38.934Z,100102.60
2022-10-17T12:05:06.928Z,100099.40
2022-10-17T12:08:01.170Z,100099.20
2022-10-17T12:10:46.566Z,100105.40
2022-10-17T12:13:29.243Z,100101.60
2022-10-17T12:16:20.680Z,100104.80
2022-10-17T12:19:23.089Z,100106.00
2022-10-17T12:22:20.042Z,100101.20
2022-10-17T12:25:03.184Z,100098.40
2022-10-17T12:27:36.027Z,100096.20
2022-10-17T12:30:26.057Z,100097.00
2022-10-17T12:33:22.441Z,100097.40
2022-10-17T12:36:11.626Z,100093.40
2022-10-17T12:38:39.222Z,100097.80
2022-10-17T12:41:06.855Z,100089.00
2022-10-17T12:43:53.589Z,100088.60
2022-10-17T12:47:07.965Z,100088.00
2022-10-17T12:49:54.414Z,100089.00
2022-10-17T12:52:35.034Z,100085.00
2022-10-17T12:55:25.509Z,100082.60
2022-10-17T12:58:08.143Z,100081.40
2022-10-17T13:01:22.530Z,100078.60
2022-10-17T13:03:52.394Z,100075.40
2022-10-17T13:06:28.279Z,100080.40
2022-10-17T13:09:24.186Z,100087.00
2022-10-17T13:11:54.395Z,100078.80
2022-10-17T13:14:24.548Z,100076.60
2022-10-17T13:17:00.442Z,100078.20
2022-10-17T13:19:42.934Z,100079.20
2022-10-17T13:22:16.825Z,100079.80
2022-10-17T13:24:44.995Z,100078.20
2022-10-17T13:27:34.498Z,100079.40
2022-10-17T13:30:41.370Z,100076.00
2022-10-17T13:33:39.246Z,100085.00
2022-10-17T13:36:15.652Z,100078.40
2022-10-17T13:38:43.420Z,100074.60
2022-10-17T13:41:34.878Z,100073.60
2022-10-17T13:44:12.136Z,100074.20
2022-10-17T13:46:40.741Z,100074.40
2022-10-17T13:49:18.822Z,100075.60
2022-10-17T13:51:51.819Z,100067.60
2022-10-17T13:54:40.919Z,100070.20
2022-10-17T13:57:26.965Z,100073.80
2022-10-17T14:00:09.910Z,100070.00
2022-10-17T14:02:41.864Z,100075.60
2022-10-17T14:05:19.307Z,100075.00
2022-10-17T14:08:22.799Z,100076.00
2022-10-17T14:10:50.562Z,100079.20
2022-10-17T14:13:28.852Z,100081.20
2022-10-17T14:16:02.883Z,100075.60
2022-10-17T14:18:36.643Z,100075.80
2022-10-17T14:21:36.943Z,100083.20
2022-10-17T14:24:22.502Z,100081.60
2022-10-17T14:26:54.712Z,100078.00
2022-10-17T14:29:27.686Z,100082.00
2022-10-17T14:32:13.801Z,100075.80
2022-10-17T14:34:41.799Z,100080.40
2022-10-17T14:37:17.297Z,100083.40
2022-10-17T14:39:51.010Z,100084.60
2022-10-17T14:42:21.907Z,100087.00
2022-10-17T14:44:52.631Z,100081.40
2022-10-17T14:47:42.720Z,100081.00
2022-10-17T14:50:11.450Z,100074.40
2022-10-17T14:52:39.875Z,100073.00
2022-10-17T14:55:27.151Z,100076.00
2022-10-17T14:57:54.847Z,100073.60
2022-10-17T15:00:24.913Z,100076.60
2022-10-17T15:02:55.179Z,100075.40
2022-10-17T15:05:23.411Z,100064.20
2022-10-17T15:07:51.869Z,100064.20
2022-10-17T15:10:33.867Z,100060.60
2022-10-17T15:13:27.184Z,100052.40
2022-10-17T15:15:52.124Z,100058.80
2022-10-17T15:18:20.213Z,100055.60
2022-10-17T15:20:51.961Z,100055.80
2022-10-17T15:23:27.353Z,100054.20
2022-10-17T15:25:55.002Z,100055.60
2022-10-17T15:28:22.622Z,100056.00
2022-10-17T15:30:50.201Z,100054.00
2022-10-17T15:33:17.870Z,100057.60
2022-10-17T15:35:45.912Z,100058.60
2022-10-17T15:38:18.066Z,100052.80
2022-10-17T15:40:48.973Z,100055.60
2022-10-17T15:43:19.850Z,100053.20
2022-10-17T15:45:48.570Z,100050.60
2022-10-17T15:48:25.769Z,100056.60
2022-10-17T15:50:53.372Z,100055.00
2022-10-17T15:53:21.205Z,100059.20
2022-10-17T15:55:50.987Z,100054.60
2022-10-17T15:58:19.667Z,100050.60
2022-10-17T16:00:48.408Z,100049.60
2022-10-17T16:03:16.100Z,100052.20
2022-10-17T16:05:43.743Z,100052.60
2022-10-17T16:08:11.339Z,100049.80
2022-10-17T16:10:40.787Z,100053.80
2022-10-17T16:13:18.248Z,100056.00
2022-10-17T16:15:46.215Z,100054.40
2022-10-17T16:18:14.510Z,100057.20
2022-10-17T16:20:42.168Z,100056.00
2022-10-17T16:23:12.854Z,100052.80
2022-10-17T16:25:41.184Z,100058.40
2022-10-17T16:28:09.519Z,100056.60
2022-10-17T16:30:44.833Z,100061.60
2022-10-17T16:33:12.698Z,100057.60
2022-10-17T16:35:40.647Z,100056.80
2022-10-17T16:38:08.366Z,100060.20
2022-10-17T16:40:39.816Z,100068.60
2022-10-17T16:43:12.278Z,100067.80
2022-10-17T16:45:41.149Z,100071.60
2022-10-17T16:48:09.820Z,100071.60
2022-10-17T16:50:40.044Z,100071.00
2022-10-17T16:53:07.768Z,100074.20
2022-10-17T16:55:35.508Z,100075.20
2022-10-17T16:58:03.085Z,100071.40
2022-10-17T17:00:30.857Z,100075.40
2022-10-17T17:02:58.467Z,100080.20
2022-10-17T17:05:26.198Z,100079.80
2022-10-17T17:07:55.618Z,100083.80
2022-10-17T17:10:23.233Z,100089.60
2022-10-17T17:12:51.094Z,100084.60
2022-10-17T17:15:18.804Z,100079.00
2022-10-17T17:17:52.491Z,100075.60
2022-10-17T17:20:23.020Z,100078.80
2022-10-17T17:22:51.908Z,100072.80
2022-10-17T17:25:19.775Z,100082.60
2022-10-17T17:27:47.476Z,100088.20
2022-10-17T17:30:16.209Z,100089.20
2022-10-17T17:32:43.810Z,100088.00
2022-10-17T17:35:11.342Z,100089.80
2022-10-17T17:37:38.940Z,100088.60
2022-10-17T17:40:07.652Z,100083.80
2022-10-17T17:42:35.317Z,100082.80
2022-10-17T17:45:04.095Z,100081.60
2022-10-17T17:47:31.972Z,100085.40
2022-10-17T17:49:59.697Z,100081.20
2022-10-17T17:52:27.464Z,100086.80
2022-10-17T17:54:56.239Z,100076.00
2022-10-17T17:57:23.812Z,100077.40
2022-10-17T17:59:52.291Z,100078.40
2022-10-17T18:02:19.869Z,100077.80
2022-10-17T18:04:48.613Z,100076.80
2022-10-17T18:07:16.248Z,100083.80
2022-10-17T18:09:43.905Z,100080.80
2022-10-17T18:12:11.535Z,100081.00
2022-10-17T18:14:39.188Z,100088.20
2022-10-17T18:17:06.792Z,100087.20
2022-10-17T18:19:34.817Z,100086.20
2022-10-17T18:22:02.657Z,100089.60
2022-10-17T18:24:30.225Z,100086.00
2022-10-17T18:26:59.950Z,100085.00
2022-10-17T18:29:29.505Z,100081.40
2022-10-17T18:31:57.086Z,100076.20
2022-10-17T18:34:25.665Z,100081.60
2022-10-17T18:36:56.305Z,100079.40
2022-10-17T18:39:24.192Z,100075.60
2022-10-17T18:41:51.804Z,100078.60
2022-10-17T18:44:19.683Z,100074.80
2022-10-17T18:46:47.456Z,100080.00
2022-10-17T18:49:18.963Z,100085.20
2022-10-17T18:51:47.253Z,100084.40
2022-10-17T18:54:20.499Z,100087.00
2022-10-17T18:56:53.628Z,100080.80
2022-10-17T18:59:22.149Z,100088.40
2022-10-17T19:01:49.858Z,100087.40
2022-10-17T19:04:17.850Z,100090.80
2022-10-17T19:06:45.408Z,100092.40
2022-10-17T19:09:14.810Z,100086.60
2022-10-17T19:11:43.007Z,100089.80
2022-10-17T19:14:13.444Z,100087.40
2022-10-17T19:16:46.354Z,100087.80
2022-10-17T19:19:21.956Z,100080.20
2022-10-17T19:21:50.958Z,100081.20
2022-10-17T19:24:25.177Z,100079.80
2022-10-17T19:26:55.770Z,100079.80
2022-10-17T19:29:27.668Z,100073.80
2022-10-17T19:34:23.755Z,100077.80
2022-10-17T19:36:51.393Z,100076.80
2022-10-17T19:39:23.281Z,100076.80
2022-10-17T19:41:51.385Z,100081.80
2022-10-17T19:44:19.412Z,100079.00
2022-10-17T19:46:49.169Z,100077.00
2022-10-17T19:49:18.215Z,100074.00
2022-10-17T19:51:45.883Z,100075.20
2022-10-17T19:54:15.169Z,100076.60
2022-10-17T19:56:43.512Z,100075.40
2022-10-17T19:59:14.716Z,100078.60
2022-10-17T20:01:43.602Z,100077.60
2022-10-17T20:04:13.500Z,100073.60
2022-10-17T20:06:41.619Z,100077.60
2022-10-17T20:09:14.049Z,100075.20
2022-10-17T20:11:45.477Z,100080.40
2022-10-17T20:14:13.159Z,100084.60
2022-10-17T20:16:40.864Z,100085.40
2022-10-17T20:19:11.939Z,100084.20
2022-10-17T20:21:40.311Z,100085.40
2022-10-17T20:24:14.242Z,100083.40
2022-10-17T20:26:42.774Z,100080.00
2022-10-17T20:29:20.414Z,100079.60
2022-10-17T20:31:48.603Z,100079.40
2022-10-17T20:34:19.064Z,100076.00
2022-10-17T20:36:48.012Z,100081.40
2022-10-17T20:39:18.810Z,100084.60
2022-10-17T20:41:46.991Z,100081.20
2022-10-17T20:44:14.639Z,100078.20
2022-10-17T20:46:52.722Z,100082.60
2022-10-17T20:49:26.493Z,100077.80
2022-10-17T20:51:53.993Z,100079.00
2022-10-17T20:54:22.433Z,100081.20
2022-10-17T20:56:50.140Z,100085.00
2022-10-17T20:59:18.597Z,100074.40
2022-10-17T21:01:47.847Z,100080.60
2022-10-17T21:04:44.100Z,100079.80
2022-10-17T21:07:03.657Z,100075.60
2022-10-17T21:09:31.381Z,100071.60
2022-10-17T21:11:58.997Z,100070.60
2022-10-17T21:14:26.582Z,100069.00
2022-10-17T21:16:54.256Z,100068.40
2022-10-17T21:19:22.057Z,100066.00
2022-10-17T21:21:50.511Z,100067.40
2022-10-17T21:24:20.511Z,100066.60
2022-10-17T21:26:55.243Z,100068.00
2022-10-17T21:29:24.058Z,100065.00
2022-10-17T21:31:52.812Z,100067.80
2022-10-17T21:34:25.006Z,100077.60
2022-10-17T21:36:53.450Z,100073.20
2022-10-17T21:39:22.944Z,100070.00
2022-10-17T21:41:51.669Z,100070.60
2022-10-17T21:44:24.845Z,100065.40
2022-10-17T21:46:53.860Z,100060.40
2022-10-17T21:49:25.019Z,100063.80
2022-10-17T21:51:53.576Z,100070.60
2022-10-17T21:54:23.587Z,100065.40
2022-10-17T21:56:52.688Z,100063.00
2022-10-17T21:59:20.277Z,100060.40
2022-10-17T22:01:47.995Z,100062.80
2022-10-17T22:04:19.016Z,100064.20
2022-10-17T22:06:51.156Z,100063.60
2022-10-17T22:09:25.728Z,100064.60
2022-10-17T22:11:56.650Z,100063.60
2022-10-17T22:14:27.279Z,100061.60
2022-10-17T22:16:55.566Z,100054.40
2022-10-17T22:19:26.697Z,100052.60
2022-10-17T22:21:55.048Z,100048.40
2022-10-17T22:24:23.322Z,100050.80
2022-10-17T22:26:51.727Z,100054.00
2022-10-17T22:29:20.175Z,100052.20
2022-10-17T22:31:47.805Z,100049.20
2022-10-17T22:34:17.960Z,100048.20
2022-10-17T22:36:47.779Z,100047.40
2022-10-17T22:39:15.653Z,100049.00
2022-10-17T22:41:43.244Z,100048.20
2022-10-17T22:44:10.872Z,100047.40
2022-10-17T22:46:38.683Z,100049.00
2022-10-17T22:49:06.284Z,100048.00
2022-10-17T22:51:33.885Z,100046.80
2022-10-17T22:54:01.578Z,100043.20
2022-10-17T22:56:29.233Z,100044.20
2022-10-17T22:58:56.822Z,100041.60
2022-10-17T23:01:25.819Z,100045.00
2022-10-17T23:03:54.185Z,100044.60
2022-10-17T23:06:22.436Z,100042.00
2022-10-17T23:08:50.161Z,100041.00
2022-10-17T23:11:18.477Z,100042.20
2022-10-17T23:13:46.239Z,100039.80
2022-10-17T23:16:13.755Z,100043.80
2022-10-17T23:18:41.863Z,100044.00
2022-10-17T23:21:10.245Z,100048.00
2022-10-17T23:23:37.801Z,100043.60
2022-10-17T23:26:13.447Z,100044.00
2022-10-17T23:28:42.901Z,100041.00
2022-10-17T23:31:19.870Z,100040.00
2022-10-17T23:33:49.896Z,100032.20
2022-10-17T23:36:20.593Z,100032.40
2022-10-17T23:38:49.013Z,100025.00
2022-10-17T23:41:17.157Z,100024.40
2022-10-17T23:43:45.051Z,100021.00
2022-10-17T23:46:13.467Z,100021.40
2022-10-17T23:48:41.372Z,100023.20
2022-10-17T23:51:10.427Z,100018.20
2022-10-17T23:53:39.438Z,100021.00
2022-10-17T23:56:09.026Z,100025.20
2022-10-17T23:58:38.756Z,100015.40
